createdAt,value
2023-03-03T00:00:06.081Z,52.00
2023-03-03T00:02:32.674Z,31.50
2023-03-03T00:04:59.286Z,34.58
2023-03-03T00:07:25.772Z,42.05
2023-03-03T00:09:52.227Z,45.05
2023-03-03T00:12:29.928Z,51.50
2023-03-03T00:14:56.834Z,62.40
2023-03-03T00:17:28.611Z,38.33
2023-03-03T00:22:36.559Z,60.60
2023-03-03T00:25:29.121Z,52.50
2023-03-03T00:27:58.699Z,44.00
2023-03-03T00:30:29.046Z,31.55
2023-03-03T00:32:56.023Z,34.75
2023-03-03T00:35:30.214Z,30.75
2023-03-03T00:37:59.915Z,33.13
2023-03-03T00:40:35.890Z,40.58
2023-03-03T00:43:12.175Z,37.80
2023-03-03T00:45:48.762Z,40.90
2023-03-03T00:48:21.151Z,39.50
2023-03-03T00:50:48.890Z,36.10
2023-03-03T00:53:17.957Z,43.17
2023-03-03T00:55:46.551Z,37.67
2023-03-03T00:58:13.452Z,35.65
2023-03-03T01:00:41.026Z,33.22
2023-03-03T01:03:12.465Z,34.40
2023-03-03T01:05:38.957Z,33.08
2023-03-03T01:08:05.912Z,51.10
2023-03-03T01:10:36.494Z,31.33
2023-03-03T01:13:04.227Z,38.67
2023-03-03T01:15:30.790Z,28.15
2023-03-03T01:17:57.345Z,31.20
2023-03-03T01:20:23.832Z,28.92
2023-03-03T01:22:50.387Z,34.47
2023-03-03T01:25:16.941Z,51.05
2023-03-03T01:27:43.493Z,40.33
2023-03-03T01:30:10.483Z,28.67
2023-03-03T01:32:37.047Z,30.65
2023-03-03T01:35:03.696Z,24.98
2023-03-03T01:37:30.226Z,42.08
2023-03-03T01:39:57.899Z,34.53
2023-03-03T01:42:25.658Z,41.85
2023-03-03T01:45:10.048Z,24.83
2023-03-03T01:47:36.610Z,32.25
2023-03-03T01:50:13.477Z,39.67
2023-03-03T01:52:44.522Z,37.72
2023-03-03T01:55:22.212Z,42.63
2023-03-03T01:57:56.553Z,51.72
2023-03-03T02:00:23.149Z,67.43
2023-03-03T02:02:49.932Z,44.60
2023-03-03T02:05:16.891Z,48.50
2023-03-03T02:07:44.542Z,37.42
2023-03-03T02:10:18.552Z,42.15
2023-03-03T02:12:59.863Z,37.20
2023-03-03T02:15:32.368Z,110.32
2023-03-03T02:18:02.611Z,112.20
2023-03-03T02:20:41.222Z,62.42
2023-03-03T02:23:22.839Z,75.13
2023-03-03T02:25:59.160Z,100.10
2023-03-03T02:28:31.844Z,200.32
2023-03-03T02:31:00.088Z,59.30
2023-03-03T02:33:28.240Z,265.42
2023-03-03T02:35:55.007Z,119.70
2023-03-03T02:38:40.354Z,62.65
2023-03-03T02:41:29.367Z,77.30
2023-03-03T02:44:03.769Z,72.80
2023-03-03T02:46:35.452Z,93.20
2023-03-03T02:49:02.391Z,142.90
2023-03-03T02:51:28.855Z,180.93
2023-03-03T02:53:55.476Z,124.03
2023-03-03T02:56:22.534Z,128.00
2023-03-03T02:58:49.086Z,213.13
2023-03-03T03:01:15.734Z,248.70
2023-03-03T03:03:42.252Z,135.00
2023-03-03T03:06:08.712Z,122.53
2023-03-03T03:08:35.373Z,182.20
2023-03-03T03:11:02.238Z,89.72
2023-03-03T03:13:28.726Z,87.00
2023-03-03T03:15:55.198Z,94.00
2023-03-03T03:18:21.699Z,112.60
2023-03-03T03:20:48.573Z,70.70
2023-03-03T03:23:15.914Z,62.28
2023-03-03T03:25:48.279Z,58.95
2023-03-03T03:28:16.845Z,69.13
2023-03-03T03:30:47.244Z,83.47
2023-03-03T03:33:13.920Z,56.35
2023-03-03T03:35:45.534Z,82.75
2023-03-03T03:38:12.415Z,72.53
2023-03-03T03:40:39.056Z,54.33
2023-03-03T03:43:05.704Z,63.22
2023-03-03T03:45:32.431Z,80.22
2023-03-03T03:47:58.974Z,77.32
2023-03-03T03:50:26.341Z,54.53
2023-03-03T03:52:52.820Z,62.15
2023-03-03T03:55:19.327Z,78.63
2023-03-03T03:57:45.858Z,54.58
2023-03-03T04:00:12.740Z,92.28
2023-03-03T04:02:39.251Z,76.18
2023-03-03T04:05:06.278Z,74.20
2023-03-03T04:07:32.792Z,97.95
2023-03-03T04:09:59.576Z,79.63
2023-03-03T04:12:26.379Z,52.10
2023-03-03T04:14:52.872Z,52.58
2023-03-03T04:17:20.954Z,60.88
2023-03-03T04:19:47.589Z,65.05
2023-03-03T04:22:15.216Z,68.55
2023-03-03T04:24:41.956Z,114.15
2023-03-03T04:27:11.680Z,73.43
2023-03-03T04:29:38.120Z,69.47
2023-03-03T04:32:07.360Z,91.60
2023-03-03T04:34:34.015Z,59.75
2023-03-03T04:37:00.728Z,70.32
2023-03-03T04:39:28.215Z,60.58
2023-03-03T04:41:54.772Z,67.85
2023-03-03T04:44:21.432Z,69.20
2023-03-03T04:46:47.923Z,59.13
2023-03-03T04:49:14.394Z,70.80
2023-03-03T04:51:40.851Z,89.57
2023-03-03T04:54:07.356Z,76.78
2023-03-03T04:56:33.841Z,76.95
2023-03-03T04:59:00.295Z,67.70
2023-03-03T05:01:26.968Z,72.70
2023-03-03T05:03:53.478Z,66.35
2023-03-03T05:06:20.026Z,71.60
2023-03-03T05:08:46.981Z,85.25
2023-03-03T05:11:14.063Z,71.32
2023-03-03T05:13:40.827Z,75.72
2023-03-03T05:16:07.695Z,93.90
2023-03-03T05:18:34.286Z,62.88
2023-03-03T05:21:01.434Z,60.60
2023-03-03T05:23:27.938Z,62.28
2023-03-03T05:25:54.661Z,86.45
2023-03-03T05:28:21.261Z,94.13
2023-03-03T05:30:47.918Z,140.20
2023-03-03T05:33:16.017Z,84.95
2023-03-03T05:35:42.839Z,62.25
2023-03-03T05:38:09.411Z,127.78
2023-03-03T05:40:36.257Z,213.07
2023-03-03T05:43:02.821Z,80.88
2023-03-03T05:45:29.387Z,82.15
2023-03-03T05:47:55.862Z,74.75
2023-03-03T05:50:23.652Z,220.02
2023-03-03T05:52:51.792Z,201.77
2023-03-03T05:55:19.103Z,244.93
2023-03-03T05:57:46.236Z,95.55
2023-03-03T06:00:14.688Z,83.90
2023-03-03T06:02:42.266Z,129.45
2023-03-03T06:05:09.701Z,130.48
2023-03-03T06:07:36.504Z,186.38
2023-03-03T06:10:04.286Z,306.85
2023-03-03T06:12:30.827Z,163.68
2023-03-03T06:14:57.294Z,167.63
2023-03-03T06:17:26.580Z,171.45
2023-03-03T06:19:53.072Z,113.75
2023-03-03T06:22:22.967Z,132.55
2023-03-03T06:24:49.536Z,105.93
2023-03-03T06:27:16.083Z,89.15
2023-03-03T06:29:42.565Z,95.43
2023-03-03T06:32:09.118Z,96.38
2023-03-03T06:34:35.701Z,83.72
2023-03-03T06:37:02.240Z,89.93
2023-03-03T06:39:28.847Z,157.23
2023-03-03T06:41:55.574Z,113.40
2023-03-03T06:44:22.167Z,79.35
2023-03-03T06:46:48.655Z,68.70
2023-03-03T06:49:15.199Z,69.85
2023-03-03T06:51:42.653Z,75.43
2023-03-03T06:54:13.459Z,74.03
2023-03-03T06:56:41.098Z,56.65
2023-03-03T06:59:15.432Z,66.45
2023-03-03T07:01:43.316Z,56.60
2023-03-03T07:04:24.815Z,66.65
2023-03-03T07:06:51.415Z,66.82
2023-03-03T07:09:26.709Z,71.32
2023-03-03T07:12:00.588Z,66.97
2023-03-03T07:14:28.659Z,69.65
2023-03-03T07:17:00.911Z,67.82
2023-03-03T07:19:35.440Z,62.85
2023-03-03T07:22:22.417Z,56.33
2023-03-03T07:24:53.151Z,60.05
2023-03-03T07:27:19.641Z,59.70
2023-03-03T07:29:51.542Z,52.95
2023-03-03T07:34:47.833Z,55.60
2023-03-03T07:37:25.599Z,50.22
2023-03-03T07:39:52.071Z,55.70
2023-03-03T07:42:23.031Z,52.60
2023-03-03T07:44:52.506Z,51.57
2023-03-03T07:47:19.454Z,58.67
2023-03-03T07:49:48.049Z,53.13
2023-03-03T07:52:49.443Z,54.42
2023-03-03T07:55:39.808Z,49.60
2023-03-03T07:58:16.422Z,50.13
2023-03-03T08:00:42.965Z,48.05
2023-03-03T08:03:19.218Z,55.10
2023-03-03T08:05:51.748Z,54.95
2023-03-03T08:08:47.887Z,60.33
2023-03-03T08:11:14.407Z,58.50
2023-03-03T08:13:43.531Z,61.45
2023-03-03T08:16:10.003Z,55.38
2023-03-03T08:18:36.513Z,55.72
2023-03-03T08:21:11.244Z,59.53
2023-03-03T08:23:37.670Z,56.95
2023-03-03T08:26:04.344Z,57.08
2023-03-03T08:28:30.916Z,59.53
2023-03-03T08:31:12.582Z,54.70
2023-03-03T08:33:43.574Z,48.60
2023-03-03T08:36:10.691Z,57.05
2023-03-03T08:38:37.564Z,58.08
2023-03-03T08:41:04.658Z,60.83
2023-03-03T08:43:32.989Z,53.97
2023-03-03T08:46:01.772Z,56.42
2023-03-03T08:48:29.185Z,57.47
2023-03-03T08:50:55.729Z,56.78
2023-03-03T08:53:23.832Z,67.35
2023-03-03T08:55:50.934Z,59.40
2023-03-03T08:58:19.350Z,57.88
2023-03-03T09:00:49.249Z,64.18
2023-03-03T09:03:17.496Z,63.63
2023-03-03T09:05:47.301Z,59.63
2023-03-03T09:08:13.913Z,59.65
2023-03-03T09:10:40.512Z,65.40
2023-03-03T09:13:19.297Z,59.17
2023-03-03T09:15:47.062Z,64.65
2023-03-03T09:18:18.432Z,57.13
2023-03-03T09:20:53.019Z,66.60
2023-03-03T09:23:57.778Z,66.50
2023-03-03T09:26:45.974Z,57.88
2023-03-03T09:29:15.239Z,62.33
2023-03-03T09:31:49.194Z,60.67
2023-03-03T09:34:21.442Z,54.67
2023-03-03T09:36:49.569Z,50.88
2023-03-03T09:39:25.434Z,53.95
2023-03-03T09:42:01.094Z,51.67
2023-03-03T09:44:42.931Z,60.88
2023-03-03T09:47:33.301Z,56.10
2023-03-03T09:50:18.011Z,51.47
2023-03-03T09:52:50.718Z,53.83
2023-03-03T09:55:25.560Z,51.78
2023-03-03T09:58:10.149Z,44.67
2023-03-03T10:00:40.319Z,47.80
2023-03-03T10:03:40.797Z,54.80
2023-03-03T10:06:31.986Z,49.33
2023-03-03T10:09:09.434Z,47.92
2023-03-03T10:11:42.820Z,56.22
2023-03-03T10:14:18.913Z,62.92
2023-03-03T10:16:51.934Z,55.33
2023-03-03T10:20:06.479Z,57.65
2023-03-03T10:22:54.334Z,51.50
2023-03-03T10:25:42.353Z,64.85
2023-03-03T10:28:46.253Z,58.22
2023-03-03T10:31:46.917Z,55.80
2023-03-03T10:34:37.928Z,56.67
2023-03-03T10:37:32.204Z,60.13
2023-03-03T10:40:13.808Z,66.90
2023-03-03T10:42:45.852Z,63.67
2023-03-03T10:45:30.612Z,68.25
2023-03-03T10:48:18.919Z,60.97
2023-03-03T10:51:24.727Z,60.38
2023-03-03T10:54:03.279Z,68.22
2023-03-03T10:56:52.458Z,65.40
2023-03-03T10:59:47.305Z,75.07
2023-03-03T11:02:53.466Z,74.68
2023-03-03T11:05:40.320Z,65.55
2023-03-03T11:08:22.308Z,67.03
2023-03-03T11:11:45.113Z,68.28
2023-03-03T11:14:34.729Z,72.00
2023-03-03T11:17:47.044Z,73.75
2023-03-03T11:20:25.677Z,77.10
2023-03-03T11:23:21.384Z,74.30
2023-03-03T11:26:09.112Z,78.55
2023-03-03T11:29:03.090Z,77.55
2023-03-03T11:31:48.565Z,81.63
2023-03-03T11:34:37.246Z,69.05
2023-03-03T11:37:40.705Z,72.10
2023-03-03T11:40:24.653Z,72.03
2023-03-03T11:43:13.134Z,73.88
2023-03-03T11:45:49.802Z,73.78
2023-03-03T11:48:36.039Z,70.60
2023-03-03T11:51:19.727Z,71.60
2023-03-03T11:54:05.629Z,69.93
2023-03-03T11:56:41.055Z,74.25
2023-03-03T11:59:10.260Z,76.88
2023-03-03T12:01:45.033Z,78.43
2023-03-03T12:04:20.003Z,82.22
2023-03-03T12:07:19.524Z,82.50
2023-03-03T12:10:02.693Z,88.75
2023-03-03T12:12:41.120Z,90.13
2023-03-03T12:15:31.088Z,97.10
2023-03-03T12:18:22.349Z,105.22
2023-03-03T12:21:04.424Z,92.67
2023-03-03T12:26:52.647Z,81.97
2023-03-03T12:29:35.564Z,85.30
2023-03-03T12:32:14.700Z,92.53
2023-03-03T12:35:24.657Z,81.35
2023-03-03T12:37:51.111Z,81.40
2023-03-03T12:40:31.941Z,79.60
2023-03-03T12:43:18.587Z,72.57
2023-03-03T12:46:28.183Z,75.10
2023-03-03T12:48:55.177Z,73.05
2023-03-03T12:51:39.234Z,73.78
2023-03-03T12:54:08.795Z,72.50
2023-03-03T12:57:00.760Z,70.22
2023-03-03T12:59:48.365Z,72.53
2023-03-03T13:02:28.315Z,70.32
2023-03-03T13:05:03.484Z,68.15
2023-03-03T13:07:48.438Z,61.67
2023-03-03T13:10:43.028Z,49.42
2023-03-03T13:13:19.981Z,41.90
2023-03-03T13:16:16.836Z,47.45
2023-03-03T13:18:55.436Z,47.80
2023-03-03T13:21:45.488Z,45.25
2023-03-03T13:24:39.728Z,40.35
2023-03-03T13:27:21.112Z,38.83
2023-03-03T13:29:59.992Z,42.17
2023-03-03T13:32:37.710Z,42.53
2023-03-03T13:35:13.564Z,41.33
2023-03-03T13:37:46.852Z,41.40
2023-03-03T13:40:13.456Z,41.33
2023-03-03T13:42:58.587Z,50.55
2023-03-03T13:45:25.094Z,41.88
2023-03-03T13:48:15.892Z,45.47
2023-03-03T13:50:50.906Z,48.22
2023-03-03T13:53:39.548Z,44.45
2023-03-03T13:56:18.962Z,42.03
2023-03-03T13:59:05.011Z,53.85
2023-03-03T14:01:49.617Z,35.90
2023-03-03T14:04:40.897Z,36.50
2023-03-03T14:07:18.102Z,36.97
2023-03-03T14:10:01.029Z,34.22
2023-03-03T14:12:45.703Z,38.67
2023-03-03T14:15:24.754Z,39.65
2023-03-03T14:18:24.162Z,42.72
2023-03-03T14:20:59.791Z,41.88
2023-03-03T14:23:29.242Z,43.92
2023-03-03T14:26:09.666Z,40.05
2023-03-03T14:28:45.319Z,34.63
2023-03-03T14:31:26.761Z,34.78
2023-03-03T14:34:22.490Z,35.22
2023-03-03T14:36:51.118Z,39.05
2023-03-03T14:39:37.223Z,39.97
2023-03-03T14:42:48.309Z,43.53
2023-03-03T14:45:40.530Z,40.08
2023-03-03T14:50:51.803Z,35.42
2023-03-03T14:53:18.219Z,37.88
2023-03-03T14:55:51.518Z,38.80
2023-03-03T14:58:28.826Z,37.42
2023-03-03T15:01:16.264Z,36.65
2023-03-03T15:03:55.531Z,38.83
2023-03-03T15:06:46.610Z,33.90
2023-03-03T15:09:48.308Z,34.85
2023-03-03T15:12:19.524Z,35.55
2023-03-03T15:14:49.163Z,33.00
2023-03-03T15:17:35.453Z,35.65
2023-03-03T15:20:20.363Z,35.90
2023-03-03T15:23:18.430Z,32.42
2023-03-03T15:25:58.832Z,32.28
2023-03-03T15:28:31.046Z,29.40
2023-03-03T15:31:03.440Z,32.38
2023-03-03T15:33:37.852Z,31.08
2023-03-03T15:36:27.014Z,31.60
2023-03-03T15:39:10.099Z,30.80
2023-03-03T15:41:54.951Z,28.27
2023-03-03T15:44:31.960Z,29.52
2023-03-03T15:47:16.070Z,30.73
2023-03-03T15:50:03.605Z,30.45
2023-03-03T15:52:49.264Z,31.15
2023-03-03T15:55:42.153Z,30.27
2023-03-03T15:58:25.668Z,28.52
2023-03-03T16:01:12.213Z,31.73
2023-03-03T16:03:48.281Z,27.55
2023-03-03T16:06:37.350Z,31.60
2023-03-03T16:09:31.381Z,35.58
2023-03-03T16:11:58.009Z,28.02
2023-03-03T16:14:43.013Z,32.33
2023-03-03T16:17:27.549Z,29.23
2023-03-03T16:20:17.643Z,32.35
2023-03-03T16:23:03.993Z,32.67
2023-03-03T16:25:42.398Z,34.13
2023-03-03T16:28:26.176Z,33.97
2023-03-03T16:30:59.073Z,36.00
2023-03-03T16:33:34.616Z,37.25
2023-03-03T16:36:16.386Z,32.38
2023-03-03T16:38:58.889Z,43.38
2023-03-03T16:41:44.137Z,34.22
2023-03-03T16:44:22.854Z,45.25
2023-03-03T16:46:50.550Z,44.17
2023-03-03T16:49:52.682Z,42.28
2023-03-03T16:52:33.716Z,42.15
2023-03-03T16:55:12.240Z,47.70
2023-03-03T16:58:08.602Z,48.60
2023-03-03T17:00:45.188Z,45.75
2023-03-03T17:03:46.905Z,48.97
2023-03-03T17:06:23.439Z,56.53
2023-03-03T17:08:56.361Z,55.00
2023-03-03T17:11:50.184Z,54.33
2023-03-03T17:14:31.431Z,53.05
2023-03-03T17:17:05.899Z,56.15
2023-03-03T17:19:38.393Z,59.33
2023-03-03T17:22:07.706Z,56.15
2023-03-03T17:24:57.620Z,48.13
2023-03-03T17:27:36.274Z,59.25
2023-03-03T17:30:14.491Z,54.38
2023-03-03T17:32:52.409Z,54.28
2023-03-03T17:35:40.726Z,53.38
2023-03-03T17:38:12.937Z,46.38
2023-03-03T17:40:58.262Z,56.90
2023-03-03T17:43:50.147Z,60.30
2023-03-03T17:46:39.797Z,53.03
2023-03-03T17:49:22.273Z,52.60
2023-03-03T17:51:59.756Z,52.42
2023-03-03T17:54:53.431Z,45.08
2023-03-03T17:57:40.679Z,55.88
2023-03-03T18:00:32.762Z,47.42
2023-03-03T18:03:08.396Z,47.00
2023-03-03T18:05:54.473Z,54.22
2023-03-03T18:08:46.993Z,45.38
2023-03-03T18:11:35.357Z,44.63
2023-03-03T18:14:17.236Z,41.30
2023-03-03T18:17:08.207Z,44.60
2023-03-03T18:19:57.128Z,42.28
2023-03-03T18:22:31.743Z,37.95
2023-03-03T18:25:13.584Z,33.75
2023-03-03T18:28:04.806Z,35.30
2023-03-03T18:30:51.973Z,28.33
2023-03-03T18:33:34.922Z,30.15
2023-03-03T18:36:15.769Z,29.33
2023-03-03T18:38:46.746Z,29.58
2023-03-03T18:41:22.501Z,28.30
2023-03-03T18:44:27.535Z,29.77
2023-03-03T18:46:55.688Z,29.05
2023-03-03T18:49:40.647Z,28.17
2023-03-03T18:52:37.041Z,31.42
2023-03-03T18:55:09.505Z,33.55
2023-03-03T18:57:39.437Z,28.90
2023-03-03T19:00:21.512Z,29.20
2023-03-03T19:05:23.241Z,31.10
2023-03-03T19:08:02.988Z,35.20
2023-03-03T19:11:02.958Z,36.92
2023-03-03T19:13:32.263Z,35.40
2023-03-03T19:16:02.995Z,41.80
2023-03-03T19:18:34.174Z,41.20
2023-03-03T19:21:18.523Z,39.55
2023-03-03T19:23:51.103Z,38.40
2023-03-03T19:26:28.919Z,43.08
2023-03-03T19:29:16.951Z,44.28
2023-03-03T19:31:53.084Z,42.72
2023-03-03T19:34:50.327Z,44.47
2023-03-03T19:38:11.135Z,47.80
2023-03-03T19:41:18.113Z,42.40
2023-03-03T19:44:12.922Z,43.05
2023-03-03T19:47:04.438Z,44.63
2023-03-03T19:49:53.139Z,46.80
2023-03-03T19:52:33.049Z,51.53
2023-03-03T19:55:24.762Z,44.75
2023-03-03T19:58:24.024Z,43.97
2023-03-03T20:01:14.129Z,45.75
2023-03-03T20:04:11.005Z,47.95
2023-03-03T20:06:56.414Z,53.13
2023-03-03T20:09:53.509Z,43.30
2023-03-03T20:12:29.103Z,47.67
2023-03-03T20:15:09.766Z,41.67
2023-03-03T20:17:52.252Z,42.97
2023-03-03T20:20:41.119Z,45.88
2023-03-03T20:23:27.568Z,40.75
2023-03-03T20:26:01.885Z,40.72
2023-03-03T20:29:05.560Z,49.75
2023-03-03T20:31:39.522Z,42.15
2023-03-03T20:34:12.146Z,44.17
2023-03-03T20:36:47.802Z,36.30
2023-03-03T20:39:37.877Z,35.97
2023-03-03T20:42:13.600Z,40.47
2023-03-03T20:45:04.693Z,36.30
2023-03-03T20:47:46.610Z,30.60
2023-03-03T20:50:27.899Z,39.13
2023-03-03T20:53:07.532Z,33.08
2023-03-03T20:56:05.480Z,37.00
2023-03-03T20:59:06.017Z,33.97
2023-03-03T21:01:53.737Z,35.28
2023-03-03T21:04:26.475Z,36.95
2023-03-03T21:06:53.769Z,41.75
2023-03-03T21:09:23.010Z,35.08
2023-03-03T21:11:49.484Z,36.13
2023-03-03T21:14:27.783Z,37.75
2023-03-03T21:16:57.040Z,36.88
2023-03-03T21:19:34.756Z,33.47
2023-03-03T21:22:02.749Z,34.92
2023-03-03T21:24:48.982Z,40.83
2023-03-03T21:27:38.502Z,35.55
2023-03-03T21:30:19.270Z,35.53
2023-03-03T21:32:48.200Z,36.38
2023-03-03T21:35:22.219Z,34.92
2023-03-03T21:37:53.569Z,32.25
2023-03-03T21:40:27.427Z,36.70
2023-03-03T21:42:57.073Z,41.08
2023-03-03T21:45:29.953Z,35.55
2023-03-03T21:48:02.450Z,30.30
2023-03-03T21:50:35.521Z,29.10
2023-03-03T21:53:04.648Z,31.77
2023-03-03T21:55:43.242Z,29.02
2023-03-03T21:58:09.721Z,29.65
2023-03-03T22:00:36.214Z,26.88
2023-03-03T22:03:02.694Z,27.17
2023-03-03T22:05:29.167Z,34.22
2023-03-03T22:07:55.764Z,36.13
2023-03-03T22:10:22.333Z,28.88
2023-03-03T22:12:54.408Z,32.33
2023-03-03T22:15:21.405Z,31.88
2023-03-03T22:17:47.904Z,26.77
2023-03-03T22:20:15.382Z,28.92
2023-03-03T22:22:42.781Z,26.85
2023-03-03T22:25:11.404Z,28.90
2023-03-03T22:27:40.962Z,27.27
2023-03-03T22:30:08.294Z,30.08
2023-03-03T22:32:38.270Z,32.72
2023-03-03T22:35:05.150Z,31.33
2023-03-03T22:37:31.700Z,31.02
2023-03-03T22:39:58.166Z,28.95
2023-03-03T22:42:27.917Z,30.23
2023-03-03T22:44:54.488Z,28.45
2023-03-03T22:47:21.039Z,32.13
2023-03-03T22:49:47.555Z,31.20
2023-03-03T22:52:14.071Z,33.65
2023-03-03T22:54:41.091Z,28.88
2023-03-03T22:57:07.565Z,26.30
2023-03-03T22:59:34.569Z,31.52
2023-03-03T23:02:01.096Z,31.48
2023-03-03T23:04:30.450Z,33.35
2023-03-03T23:06:58.579Z,32.95
2023-03-03T23:09:28.225Z,27.63
2023-03-03T23:11:58.582Z,33.40
2023-03-03T23:14:25.814Z,29.02
2023-03-03T23:16:52.388Z,30.60
2023-03-03T23:19:18.890Z,29.30
2023-03-03T23:21:45.490Z,36.38
2023-03-03T23:24:12.223Z,33.85
2023-03-03T23:26:41.562Z,35.20
2023-03-03T23:29:08.734Z,37.22
2023-03-03T23:31:38.097Z,31.20
2023-03-03T23:34:04.801Z,30.85
2023-03-03T23:36:32.503Z,33.00
2023-03-03T23:39:01.536Z,37.85
2023-03-03T23:41:27.992Z,36.95
2023-03-03T23:44:00.581Z,34.25
2023-03-03T23:46:27.072Z,36.65
2023-03-03T23:48:53.606Z,36.08
2023-03-03T23:51:20.073Z,29.23
2023-03-03T23:53:49.211Z,35.72
2023-03-03T23:56:15.673Z,33.58
2023-03-03T23:58:44.227Z,36.15
